Hlavní strana
METAR-TAF:

METAR-TAF

Letiště :

Brescia Ghedi, Itálie

zeměpisná šířka: 45-25N, zeměpisná délka: 010-17E, výška: 102 m

Aktuální stav počasí

Zpráva byla vytvořena před 47 minutami, v 12:55 UTC
Západojihozápadní vítr 6 kt
Teplota 24°C
Vlhkost vzduchu 69%
Tlak 1021 hPa
Viditelnost 10 km a více
Žádná oblačnost pod 1500 m, nevyskytují se cumulonimby.

METAR: LIPL 141255Z 25006KT CAVOK 24/18 Q1021 RMK SKC VIS MIN 9999 WIND THR31 26007KT WIND THR13 29007KT BLU

Čas: 15:42 (13:42 UTC)

Předpověď počasí

Zpráva byla vytvořena před 2 hodinami a 42 minutami, v 11:00 UTC
Předpověď platná od 14 v 12 UTC do 14 v 21 UTC
Západojihozápadní vítr 5 kt
Viditelnost 10 km a více
Žádná oblačnost pod 1500 m, nevyskytují se cumulonimby.

TAF: LIPL 141100Z 1412/1421 25005KT CAVOK

Stav a předpovědi počasí z více než 4 000 letišť (zprávy METAR a TAF).

Červené a žluté tečky na mapě představují dostupné meteorologické stanice.

Když kurzor umístíte na tečku, zobrazí se název stanice.

Pak kliknutím zobrazíte stav a předpověď počasí.

Chcete-li změnit mapu, kliknutím na zelené tlačítko se znaménkem +mapu přiblížíte, kliknutím na zelené tlačítko se znaménkem – mapu oddálíte a kliknutím na zelené šipky přejdete na sousední mapy.


METAR-TAF: